Time;durP1;ratioP1;P1;durP2;ratioP2;P2;SDS_P1;SDS_P2;PMS_P1;PMS_P2;Temp;Humidity;BMP_temperature;BMP_pressure;BME280_temperature;BME280_humidity;BME280_pressure;Samples;Min_cycle;Max_cycle;Signal;HPM_P1;HPM_P2
2022/04/14 00:03:19;;;;;;;3.25;1.80;;;13.10;69.40;;;;;;20702335;28;20117;-71
2022/04/14 00:13:20;;;;;;;4.28;1.67;;;13.20;69.60;;;;;;20718962;28;20037;-72
2022/04/14 00:23:20;;;;;;;2.97;1.42;;;13.10;69.80;;;;;;20700444;28;20045;-71
2022/04/14 00:33:21;;;;;;;3.53;1.23;;;13.20;69.90;;;;;;20684014;28;20038;-71
2022/04/14 00:43:30;;;;;;;2.92;1.33;;;13.10;69.90;;;;;;20683504;28;20124;-73
2022/04/14 00:53:31;;;;;;;1.52;1.13;;;13.10;70.00;;;;;;20714833;28;20045;-72
2022/04/14 01:03:32;;;;;;;2.72;1.60;;;13.20;70.10;;;;;;20698299;28;20493;-72
2022/04/14 01:13:33;;;;;;;1.38;0.93;;;13.20;70.00;;;;;;20714968;28;20361;-72
2022/04/14 01:23:39;;;;;;;1.93;0.97;;;13.20;69.90;;;;;;20696643;28;20064;-72
2022/04/14 01:33:40;;;;;;;1.27;0.80;;;13.20;69.80;;;;;;20677577;28;20296;-72
2022/04/14 01:43:40;;;;;;;2.65;1.00;;;13.10;69.70;;;;;;20691138;28;20046;-71
2022/04/14 01:53:41;;;;;;;2.20;1.03;;;13.10;69.60;;;;;;20707459;28;20033;-71
2022/04/14 02:03:41;;;;;;;1.85;0.95;;;13.10;69.60;;;;;;20705445;28;20970;-73
2022/04/14 02:13:43;;;;;;;2.97;0.88;;;13.20;69.60;;;;;;20691135;28;20484;-72
2022/04/14 02:34:00;;;;;;;1.03;0.80;;;13.20;69.40;;;;;;20765897;22;1158763;-75
2022/04/14 02:44:00;;;;;;;0.73;0.70;;;13.20;69.40;;;;;;20626662;28;20117;-75
2022/04/14 02:54:01;;;;;;;1.88;1.17;;;13.20;69.40;;;;;;20626435;28;20036;-75
2022/04/14 03:04:01;;;;;;;1.38;0.80;;;13.20;69.40;;;;;;20641429;28;20117;-75
2022/04/14 03:14:02;;;;;;;1.13;0.82;;;13.20;69.40;;;;;;20644294;28;20030;-75
2022/04/14 03:24:03;;;;;;;1.27;0.88;;;13.20;69.40;;;;;;20641298;28;20549;-76
2022/04/14 03:34:03;;;;;;;1.80;1.13;;;13.20;69.40;;;;;;20656742;28;20034;-75
2022/04/14 03:44:04;;;;;;;5.55;1.15;;;13.20;69.40;;;;;;20639946;28;20045;-76
2022/04/14 03:54:05;;;;;;;7.10;0.93;;;13.10;69.30;;;;;;20672865;28;20129;-79
2022/04/14 04:04:05;;;;;;;2.15;0.75;;;13.20;69.40;;;;;;20656361;28;20465;-87
2022/04/14 04:14:06;;;;;;;1.65;1.00;;;13.20;69.40;;;;;;20638590;28;20042;-75
2022/04/14 04:24:07;;;;;;;3.72;1.20;;;13.20;69.30;;;;;;20620361;28;20062;-76
2022/04/14 04:34:07;;;;;;;3.67;1.17;;;13.20;69.30;;;;;;20636260;28;20452;-83
2022/04/14 04:44:09;;;;;;;1.45;0.90;;;13.20;69.40;;;;;;20652977;28;20026;-84
2022/04/14 04:54:10;;;;;;;1.20;0.85;;;13.20;69.40;;;;;;20683159;28;20084;-83
2022/04/14 05:04:11;;;;;;;1.77;1.00;;;13.20;69.30;;;;;;20715737;28;20038;-83
2022/04/14 05:14:11;;;;;;;1.35;0.82;;;13.20;69.30;;;;;;20715861;28;20480;-83
2022/04/14 05:24:12;;;;;;;2.20;0.70;;;13.20;69.30;;;;;;20713306;28;20045;-81
2022/04/14 05:34:13;;;;;;;1.13;0.90;;;13.20;69.20;;;;;;20669380;28;20042;-82
2022/04/14 05:44:14;;;;;;;3.25;1.13;;;13.20;69.30;;;;;;20616268;28;20731;-81
2022/04/14 05:54:15;;;;;;;2.10;1.17;;;13.20;69.30;;;;;;20699806;28;20265;-82
2022/04/14 06:04:15;;;;;;;2.92;0.80;;;13.20;69.30;;;;;;20728313;28;20041;-81
2022/04/14 06:14:16;;;;;;;1.83;0.95;;;13.20;69.40;;;;;;20745018;28;20076;-79
2022/04/14 06:24:16;;;;;;;1.75;0.82;;;13.20;69.30;;;;;;20694444;28;20029;-81
2022/04/14 06:34:17;;;;;;;0.73;0.70;;;13.20;69.40;;;;;;20710060;28;20062;-81
2022/04/14 06:44:18;;;;;;;1.77;0.98;;;13.20;69.40;;;;;;20644415;28;20030;-81
2022/04/14 06:54:18;;;;;;;1.10;0.73;;;13.20;69.50;;;;;;20629159;28;20038;-81
2022/04/14 07:04:19;;;;;;;3.50;1.25;;;13.20;69.60;;;;;;20657171;28;20038;-81
2022/04/14 07:14:19;;;;;;;3.17;1.30;;;13.20;69.60;;;;;;20707508;28;20168;-82
2022/04/14 07:24:20;;;;;;;3.45;1.00;;;13.20;69.60;;;;;;20723496;28;20034;-83
2022/04/14 07:34:21;;;;;;;2.08;1.00;;;13.20;69.70;;;;;;20724363;28;20129;-81
2022/04/14 07:44:21;;;;;;;1.25;1.02;;;13.20;69.70;;;;;;20704832;28;20061;-81
2022/04/14 07:54:22;;;;;;;1.98;1.13;;;13.20;69.70;;;;;;20649334;28;20500;-80
2022/04/14 08:04:27;;;;;;;1.85;0.80;;;13.20;69.80;;;;;;20635174;28;20041;-82
2022/04/14 08:14:27;;;;;;;1.02;0.93;;;13.20;69.80;;;;;;20641743;28;20045;-81
2022/04/14 08:24:28;;;;;;;1.40;0.80;;;13.20;69.80;;;;;;20625891;28;20465;-82
2022/04/14 08:34:29;;;;;;;2.77;1.47;;;13.20;70.00;;;;;;20641111;28;20061;-82
2022/04/14 08:44:30;;;;;;;1.85;1.00;;;13.20;70.00;;;;;;20622399;28;20664;-83
2022/04/14 08:54:30;;;;;;;2.38;0.80;;;13.20;70.10;;;;;;20605758;28;20034;-86
2022/04/14 09:04:31;;;;;;;1.65;0.90;;;13.30;70.10;;;;;;20637340;28;20042;-83
2022/04/14 09:14:34;;;;;;;1.48;1.10;;;13.30;70.20;;;;;;20658673;28;20448;-82
2022/04/14 09:24:51;;;;;;;2.25;1.52;;;13.20;70.80;;;;;;20731139;28;20050;-84
2022/04/14 09:34:51;;;;;;;1.65;0.93;;;13.20;70.30;;;;;;20634679;28;20044;-83
2022/04/14 09:44:52;;;;;;;1.15;1.05;;;13.30;70.40;;;;;;20676685;28;20042;-84
2022/04/14 09:55:06;;;;;;;1.30;0.90;;;13.30;70.40;;;;;;20713688;28;20649;-83
2022/04/14 10:05:08;;;;;;;3.50;1.40;;;13.30;70.50;;;;;;20695657;28;20049;-83
2022/04/14 10:15:09;;;;;;;2.80;1.23;;;13.30;70.50;;;;;;20659100;28;20046;-83
2022/04/14 10:25:09;;;;;;;3.05;1.38;;;13.40;70.60;;;;;;20711163;28;20038;-84
2022/04/14 10:35:10;;;;;;;2.17;1.47;;;13.40;70.60;;;;;;20710371;28;20037;-77
2022/04/14 10:45:15;;;;;;;2.47;1.20;;;13.40;70.60;;;;;;20694365;28;20284;-84
2022/04/14 10:55:19;;;;;;;3.25;1.40;;;13.40;70.60;;;;;;20678005;28;20038;-83
2022/04/14 11:05:40;;;;;;;2.38;1.45;;;13.40;70.50;;;;;;20709349;28;20037;-84
2022/04/14 11:15:40;;;;;;;3.58;1.10;;;13.40;70.50;;;;;;20692778;28;20559;-74
2022/04/14 11:25:41;;;;;;;1.45;1.02;;;13.40;70.30;;;;;;20699636;28;20199;-79
2022/04/14 11:35:48;;;;;;;1.83;1.10;;;13.40;70.20;;;;;;20726465;28;20037;-79
2022/04/14 11:45:48;;;;;;;2.53;1.30;;;13.40;70.00;;;;;;20737827;28;20316;-78
2022/04/14 11:55:49;;;;;;;3.72;1.63;;;13.50;70.10;;;;;;20704654;28;20071;-78
2022/04/14 12:05:50;;;;;;;2.35;1.65;;;13.40;70.00;;;;;;20704655;28;20503;-81
2022/04/14 12:16:08;;;;;;;2.15;1.30;;;13.50;69.90;;;;;;20643049;28;20046;-80
2022/04/14 12:26:08;;;;;;;2.00;1.40;;;13.50;69.80;;;;;;20663198;28;20045;-79
2022/04/14 12:36:09;;;;;;;3.78;1.02;;;13.50;69.80;;;;;;20735315;28;20526;-80
2022/04/14 12:46:38;;;;;;;2.15;1.45;;;13.50;69.70;;;;;;20717783;28;20037;-80
2022/04/14 12:56:38;;;;;;;2.10;1.17;;;13.50;69.70;;;;;;20703390;28;20038;-86
2022/04/14 13:06:39;;;;;;;1.98;1.10;;;13.60;69.70;;;;;;20698723;28;20048;-86
2022/04/14 13:16:40;;;;;;;2.42;1.42;;;13.60;69.70;;;;;;20698082;28;20473;-73
2022/04/14 13:26:40;;;;;;;2.85;1.50;;;13.70;69.60;;;;;;20649007;28;20049;-76
2022/04/14 13:36:42;;;;;;;5.45;1.95;;;13.60;69.50;;;;;;20634202;28;20042;-73
2022/04/14 13:46:42;;;;;;;2.72;1.40;;;13.70;69.70;;;;;;20634007;28;20049;-72
2022/04/14 13:56:43;;;;;;;3.05;1.30;;;13.60;69.80;;;;;;20647815;28;20393;-76
2022/04/14 14:06:44;;;;;;;3.58;2.90;;;13.70;70.00;;;;;;20614774;28;20525;-72
2022/04/14 14:16:44;;;;;;;4.60;1.27;;;13.60;70.10;;;;;;20639846;28;20038;-72
2022/04/14 14:26:45;;;;;;;2.20;1.40;;;13.60;70.30;;;;;;20685446;28;20128;-74
2022/04/14 14:36:47;;;;;;;1.70;1.00;;;13.70;70.60;;;;;;20691001;28;20037;-74
2022/04/14 14:46:48;;;;;;;2.05;1.20;;;13.70;70.70;;;;;;20695039;28;20458;-74
2022/04/14 14:56:48;;;;;;;4.57;1.90;;;13.70;70.80;;;;;;20657569;28;20045;-74
2022/04/14 15:06:49;;;;;;;6.03;1.45;;;13.80;70.90;;;;;;20696338;28;20066;-75
2022/04/14 15:16:50;;;;;;;2.50;1.10;;;13.90;71.10;;;;;;20714300;28;20033;-77
2022/04/14 15:26:50;;;;;;;3.85;1.52;;;13.90;71.40;;;;;;20745010;28;20137;-76
2022/04/14 15:36:51;;;;;;;3.92;1.92;;;13.90;71.70;;;;;;20674443;28;20030;-77
2022/04/14 15:46:51;;;;;;;6.65;1.70;;;13.90;72.20;;;;;;20645712;28;20069;-78
2022/04/14 15:56:52;;;;;;;3.35;1.98;;;13.90;72.70;;;;;;20721063;28;20088;-76
2022/04/14 16:06:52;;;;;;;7.63;1.98;;;13.90;73.00;;;;;;20721773;28;20049;-75
2022/04/14 16:16:54;;;;;;;2.75;1.55;;;13.90;73.30;;;;;;20739287;28;20044;-78
2022/04/14 16:26:55;;;;;;;2.40;1.40;;;13.80;73.50;;;;;;20724906;28;20061;-74
2022/04/14 16:36:55;;;;;;;1.60;1.02;;;13.80;73.60;;;;;;20720183;28;20034;-75
2022/04/14 16:46:56;;;;;;;1.63;1.17;;;13.80;73.60;;;;;;20721176;28;20492;-79
2022/04/14 16:56:56;;;;;;;3.40;1.25;;;13.80;73.70;;;;;;20735918;28;20079;-76
2022/04/14 17:07:00;;;;;;;3.17;1.30;;;13.80;73.70;;;;;;20720669;28;20038;-74
2022/04/14 17:17:00;;;;;;;1.23;1.00;;;13.80;73.70;;;;;;20736619;28;20037;-73
2022/04/14 17:27:01;;;;;;;1.48;1.05;;;13.80;73.70;;;;;;20717496;28;20240;-75
2022/04/14 17:37:02;;;;;;;1.85;0.98;;;13.80;73.60;;;;;;20715336;28;20476;-75
2022/04/14 17:47:03;;;;;;;1.70;1.13;;;13.80;73.60;;;;;;20752390;28;20491;-78
2022/04/14 17:57:03;;;;;;;1.60;1.00;;;13.70;73.40;;;;;;20717692;28;20058;-77
2022/04/14 18:07:04;;;;;;;1.30;0.80;;;13.70;73.30;;;;;;20712798;28;20041;-78
2022/04/14 18:17:04;;;;;;;1.48;1.13;;;13.70;73.20;;;;;;20731757;28;20033;-79
2022/04/14 18:27:05;;;;;;;3.65;0.90;;;13.70;73.10;;;;;;20732480;28;20070;-78
2022/04/14 18:37:08;;;;;;;2.03;1.02;;;13.70;73.00;;;;;;20729274;28;20030;-77
2022/04/14 18:47:08;;;;;;;1.35;0.70;;;13.70;72.90;;;;;;20695945;28;20077;-78
2022/04/14 18:57:09;;;;;;;2.08;1.05;;;13.70;72.80;;;;;;20735279;28;20512;-77
2022/04/14 19:07:09;;;;;;;1.40;1.02;;;13.70;72.80;;;;;;20681885;28;20119;-77
2022/04/14 19:17:10;;;;;;;0.85;0.70;;;13.70;72.70;;;;;;20729639;28;20379;-79
2022/04/14 19:27:11;;;;;;;1.20;0.73;;;13.70;72.60;;;;;;20697191;28;20484;-78
2022/04/14 19:37:11;;;;;;;1.30;0.73;;;13.60;72.50;;;;;;20652462;28;20297;-77
2022/04/14 19:47:12;;;;;;;1.98;0.65;;;13.60;72.40;;;;;;20630782;28;20046;-77
2022/04/14 19:57:13;;;;;;;1.02;0.60;;;13.70;72.30;;;;;;20619558;28;20420;-77
2022/04/14 20:07:13;;;;;;;0.65;0.60;;;13.70;72.20;;;;;;20675159;28;20117;-77
2022/04/14 20:17:14;;;;;;;2.03;0.80;;;13.60;72.00;;;;;;20743372;28;20026;-79
2022/04/14 20:27:14;;;;;;;0.97;0.67;;;13.60;71.90;;;;;;20707760;28;20367;-78
2022/04/14 20:37:15;;;;;;;1.02;0.57;;;13.60;71.80;;;;;;20724420;28;20324;-77
2022/04/14 20:47:16;;;;;;;0.63;0.43;;;13.60;71.70;;;;;;20722793;28;20108;-77
2022/04/14 20:57:16;;;;;;;2.42;1.00;;;13.60;71.60;;;;;;20738083;28;20334;-77
2022/04/14 21:07:17;;;;;;;2.30;0.90;;;13.60;71.50;;;;;;20720927;28;20069;-76
2022/04/14 21:17:17;;;;;;;1.50;1.10;;;13.60;71.50;;;;;;20688921;28;20041;-81
2022/04/14 21:27:18;;;;;;;2.50;1.10;;;13.60;71.40;;;;;;20705205;28;20084;-77
2022/04/14 21:37:18;;;;;;;2.30;1.13;;;13.60;71.40;;;;;;20703493;28;20048;-77
2022/04/14 21:47:19;;;;;;;3.22;1.08;;;13.60;71.40;;;;;;20719820;28;20731;-77
2022/04/14 21:57:20;;;;;;;2.00;1.38;;;13.50;71.90;;;;;;20718972;28;20037;-77
2022/04/14 22:07:20;;;;;;;2.58;0.90;;;13.60;71.30;;;;;;20718804;28;20428;-77
2022/04/14 22:17:21;;;;;;;3.63;1.30;;;13.60;71.20;;;;;;20701112;28;20608;-78
2022/04/14 22:27:21;;;;;;;3.50;1.30;;;13.50;71.10;;;;;;20700681;28;20476;-77
2022/04/14 22:37:22;;;;;;;1.73;0.98;;;13.50;71.10;;;;;;20715248;28;20066;-76
2022/04/14 22:47:23;;;;;;;1.30;0.90;;;13.50;70.90;;;;;;20699795;28;20036;-77
2022/04/14 22:57:23;;;;;;;1.13;0.90;;;13.50;70.80;;;;;;20682083;28;20061;-76
2022/04/14 23:07:24;;;;;;;1.65;0.90;;;13.50;70.70;;;;;;20729820;28;20484;-76
2022/04/14 23:17:25;;;;;;;1.25;0.80;;;13.50;70.70;;;;;;20730622;28;20030;-78
2022/04/14 23:27:27;;;;;;;2.80;1.30;;;13.50;70.60;;;;;;20713133;28;20041;-76
2022/04/14 23:37:28;;;;;;;0.93;0.70;;;13.40;70.50;;;;;;20741894;28;20125;-76
2022/04/14 23:47:28;;;;;;;0.70;0.52;;;13.40;70.30;;;;;;20745579;28;20057;-77
2022/04/14 23:57:29;;;;;;;3.03;1.10;;;13.40;70.20;;;;;;20728602;28;20038;-77
